Bowman, North Dakota
Current Conditions -  °F | °C
As of 7:59 PM on Monday 22 Dec 2014 (Local Time) from KHEI Reporting Station
Light Snow Light Snow  
Wind Chill: 10°   Ceiling: 1300
Heat Index: 24°   Visibility: 2.5mi
Dew Point: 20°   Wind: 20mph
Humidity: 84%   Direction: 320°NW
Pressure: 29.75"   Gusts: 29mph
Location:  46.18°N, 103.39°W
Report Text: KHEI 230259Z AUTO 32017G25KT 2 1/2SM -SN BR BKN013 BKN018 OVC029 M04/M07 A2975 RMK AO2 P0000 T10441067
Loading
Personal Weather Stations






























Interactive Weather Map New forecast layout! Learn more

10-Day Weather Forecast

Advertisements
Track Severe Weather on mobile